Weather at Neuburg-Egweil Airport

Public forecast

Using degrees Celsius for public forecast. Weather courtesy of forecast.io.

Closest aviation weather report (METAR) to Neuburg-Egweil Airport

Report is more than 6 hours old.

Closest report is Neuburg AFB, 4.3 nm (7.9 km) S. Retrieved 2022/09/17 19:00 UTC (18 days ago):

ETSN 171900Z 29004KT 6000 -SHRA BKN020CB 10/07 Q1014 WHT

Closest aviation forecast (TAF) to Neuburg-Egweil Airport

Forecast is more than 12 hours old.

Closest forecast is Neuburg AFB, 4.3 nm (7.9 km) S. Retrieved 2021/07/03 17:38 UTC (1 year ago):

TAF ETSN 031620Z 0317/0420 VRB03KT 9999 NSW FEW050 BECMG 0321/0323 23005KT 9999 NSW BKN090 BY ETGL